sensor_id;sensor_type;location;lat;lon;timestamp;P1;durP1;ratioP1;P2;durP2;ratioP2
3131;SDS011;62090;52.330;9.104;2023-03-08T01:54:18;10.37;;;6.90;;
3131;SDS011;62090;52.330;9.104;2023-03-08T05:27:57;12.05;;;9.00;;
3131;SDS011;62090;52.330;9.104;2023-03-08T05:31:09;12.95;;;8.70;;
3131;SDS011;62090;52.330;9.104;2023-03-08T05:33:47;12.03;;;9.73;;
3131;SDS011;62090;52.330;9.104;2023-03-08T06:07:54;13.20;;;10.57;;
3131;SDS011;62090;52.330;9.104;2023-03-08T06:10:24;13.50;;;10.00;;
3131;SDS011;62090;52.330;9.104;2023-03-08T06:12:54;14.53;;;11.43;;
3131;SDS011;62090;52.330;9.104;2023-03-08T06:15:24;14.73;;;11.87;;
3131;SDS011;62090;52.330;9.104;2023-03-08T06:17:55;14.70;;;10.70;;
3131;SDS011;62090;52.330;9.104;2023-03-08T06:20:25;14.07;;;10.90;;
3131;SDS011;62090;52.330;9.104;2023-03-08T06:22:58;15.20;;;12.23;;
3131;SDS011;62090;52.330;9.104;2023-03-08T06:25:29;18.20;;;12.60;;
3131;SDS011;62090;52.330;9.104;2023-03-08T06:27:59;17.90;;;12.90;;
3131;SDS011;62090;52.330;9.104;2023-03-08T07:56:27;27.02;;;19.67;;
3131;SDS011;62090;52.330;9.104;2023-03-08T08:08:38;40.60;;;26.20;;
3131;SDS011;62090;52.330;9.104;2023-03-08T08:11:28;39.90;;;27.00;;
3131;SDS011;62090;52.330;9.104;2023-03-08T08:14:02;35.20;;;25.97;;
3131;SDS011;62090;52.330;9.104;2023-03-08T08:16:36;35.47;;;25.67;;
3131;SDS011;62090;52.330;9.104;2023-03-08T08:19:09;37.17;;;25.67;;
3131;SDS011;62090;52.330;9.104;2023-03-08T08:21:43;36.80;;;25.67;;
3131;SDS011;62090;52.330;9.104;2023-03-08T08:24:15;36.83;;;25.43;;
3131;SDS011;62090;52.330;9.104;2023-03-08T08:26:50;36.00;;;24.63;;
3131;SDS011;62090;52.330;9.104;2023-03-08T08:30:53;35.67;;;25.77;;
3131;SDS011;62090;52.330;9.104;2023-03-08T08:37:48;33.40;;;24.17;;
3131;SDS011;62090;52.330;9.104;2023-03-08T09:14:35;30.50;;;20.87;;
3131;SDS011;62090;52.330;9.104;2023-03-08T09:17:41;26.23;;;19.90;;
3131;SDS011;62090;52.330;9.104;2023-03-08T09:21:29;31.20;;;22.20;;
3131;SDS011;62090;52.330;9.104;2023-03-08T09:32:32;28.27;;;18.80;;
3131;SDS011;62090;52.330;9.104;2023-03-08T09:36:42;26.70;;;19.20;;
3131;SDS011;62090;52.330;9.104;2023-03-08T10:38:13;28.10;;;18.60;;
3131;SDS011;62090;52.330;9.104;2023-03-08T10:52:24;24.90;;;16.93;;
3131;SDS011;62090;52.330;9.104;2023-03-08T11:04:01;18.63;;;13.27;;
3131;SDS011;62090;52.330;9.104;2023-03-08T11:07:26;17.93;;;12.53;;
3131;SDS011;62090;52.330;9.104;2023-03-08T11:10:33;19.53;;;13.07;;
3131;SDS011;62090;52.330;9.104;2023-03-08T11:13:58;14.77;;;11.70;;
3131;SDS011;62090;52.330;9.104;2023-03-08T11:17:34;15.80;;;12.50;;
3131;SDS011;62090;52.330;9.104;2023-03-08T12:15:43;10.40;;;8.40;;
3131;SDS011;62090;52.330;9.104;2023-03-08T12:18:19;8.67;;;7.40;;
3131;SDS011;62090;52.330;9.104;2023-03-08T12:21:27;10.23;;;4.80;;
3131;SDS011;62090;52.330;9.104;2023-03-08T12:24:55;5.07;;;4.20;;
3131;SDS011;62090;52.330;9.104;2023-03-08T12:28:32;6.83;;;4.40;;
3131;SDS011;62090;52.330;9.104;2023-03-08T12:32:29;10.53;;;4.97;;
3131;SDS011;62090;52.330;9.104;2023-03-08T12:36:22;6.90;;;5.63;;
3131;SDS011;62090;52.330;9.104;2023-03-08T12:40:01;7.00;;;5.60;;
3131;SDS011;62090;52.330;9.104;2023-03-08T12:43:08;5.00;;;4.50;;
3131;SDS011;62090;52.330;9.104;2023-03-08T12:49:51;3.60;;;3.30;;
3131;SDS011;62090;52.330;9.104;2023-03-08T12:52:33;5.20;;;3.40;;
3131;SDS011;62090;52.330;9.104;2023-03-08T12:55:18;4.50;;;3.93;;
3131;SDS011;62090;52.330;9.104;2023-03-08T12:57:57;5.73;;;4.13;;
3131;SDS011;62090;52.330;9.104;2023-03-08T13:00:30;6.57;;;5.43;;
3131;SDS011;62090;52.330;9.104;2023-03-08T13:03:05;10.03;;;5.07;;
3131;SDS011;62090;52.330;9.104;2023-03-08T13:05:53;7.50;;;5.40;;
3131;SDS011;62090;52.330;9.104;2023-03-08T13:08:27;5.07;;;4.57;;
3131;SDS011;62090;52.330;9.104;2023-03-08T13:11:04;4.70;;;3.90;;
3131;SDS011;62090;52.330;9.104;2023-03-08T13:13:41;4.47;;;4.03;;
3131;SDS011;62090;52.330;9.104;2023-03-08T13:16:20;4.50;;;4.00;;
3131;SDS011;62090;52.330;9.104;2023-03-08T13:55:05;3.30;;;2.60;;
3131;SDS011;62090;52.330;9.104;2023-03-08T14:11:44;4.20;;;3.27;;
3131;SDS011;62090;52.330;9.104;2023-03-08T14:19:43;4.33;;;3.17;;
3131;SDS011;62090;52.330;9.104;2023-03-08T14:42:48;4.90;;;4.40;;
3131;SDS011;62090;52.330;9.104;2023-03-08T14:45:21;14.20;;;3.80;;
3131;SDS011;62090;52.330;9.104;2023-03-08T14:47:52;6.20;;;4.13;;
3131;SDS011;62090;52.330;9.104;2023-03-08T14:50:24;4.40;;;3.97;;
3131;SDS011;62090;52.330;9.104;2023-03-08T14:52:56;4.30;;;3.73;;
3131;SDS011;62090;52.330;9.104;2023-03-08T14:55:28;5.30;;;4.60;;
3131;SDS011;62090;52.330;9.104;2023-03-08T14:58:02;8.07;;;6.67;;
3131;SDS011;62090;52.330;9.104;2023-03-08T15:00:46;7.07;;;5.30;;
3131;SDS011;62090;52.330;9.104;2023-03-08T15:03:17;16.70;;;7.80;;
3131;SDS011;62090;52.330;9.104;2023-03-08T15:05:47;17.97;;;10.53;;
3131;SDS011;62090;52.330;9.104;2023-03-08T15:08:17;6.43;;;5.70;;
3131;SDS011;62090;52.330;9.104;2023-03-08T15:10:47;4.40;;;3.17;;
3131;SDS011;62090;52.330;9.104;2023-03-08T15:13:21;5.33;;;3.03;;
3131;SDS011;62090;52.330;9.104;2023-03-08T15:15:53;5.77;;;2.93;;
3131;SDS011;62090;52.330;9.104;2023-03-08T15:18:26;7.17;;;6.47;;
3131;SDS011;62090;52.330;9.104;2023-03-08T15:20:56;5.83;;;4.70;;
3131;SDS011;62090;52.330;9.104;2023-03-08T15:23:26;17.57;;;10.97;;
3131;SDS011;62090;52.330;9.104;2023-03-08T15:25:59;13.97;;;10.30;;
3131;SDS011;62090;52.330;9.104;2023-03-08T15:28:35;42.57;;;23.53;;
3131;SDS011;62090;52.330;9.104;2023-03-08T15:31:09;18.03;;;10.43;;
3131;SDS011;62090;52.330;9.104;2023-03-08T15:33:41;7.60;;;6.60;;
3131;SDS011;62090;52.330;9.104;2023-03-08T15:36:16;12.10;;;10.23;;
3131;SDS011;62090;52.330;9.104;2023-03-08T15:38:52;9.10;;;6.77;;
3131;SDS011;62090;52.330;9.104;2023-03-08T15:41:23;7.47;;;6.20;;
3131;SDS011;62090;52.330;9.104;2023-03-08T15:43:55;11.00;;;8.63;;
3131;SDS011;62090;52.330;9.104;2023-03-08T15:46:25;11.30;;;8.70;;
3131;SDS011;62090;52.330;9.104;2023-03-08T15:48:55;16.53;;;12.00;;
3131;SDS011;62090;52.330;9.104;2023-03-08T15:51:28;13.73;;;10.47;;
3131;SDS011;62090;52.330;9.104;2023-03-08T15:54:03;12.07;;;8.23;;
3131;SDS011;62090;52.330;9.104;2023-03-08T15:56:33;16.53;;;11.93;;
3131;SDS011;62090;52.330;9.104;2023-03-08T15:59:06;34.90;;;18.63;;
3131;SDS011;62090;52.330;9.104;2023-03-08T16:01:36;14.87;;;13.17;;
3131;SDS011;62090;52.330;9.104;2023-03-08T16:04:06;7.97;;;7.13;;
3131;SDS011;62090;52.330;9.104;2023-03-08T16:06:36;8.23;;;5.87;;
3131;SDS011;62090;52.330;9.104;2023-03-08T16:09:05;7.70;;;6.27;;
3131;SDS011;62090;52.330;9.104;2023-03-08T16:11:35;10.13;;;7.50;;
3131;SDS011;62090;52.330;9.104;2023-03-08T16:14:07;10.20;;;7.40;;
3131;SDS011;62090;52.330;9.104;2023-03-08T16:16:43;11.30;;;7.37;;
3131;SDS011;62090;52.330;9.104;2023-03-08T16:19:15;8.03;;;7.23;;
3131;SDS011;62090;52.330;9.104;2023-03-08T16:21:45;7.97;;;6.87;;
3131;SDS011;62090;52.330;9.104;2023-03-08T16:24:15;8.23;;;7.03;;
3131;SDS011;62090;52.330;9.104;2023-03-08T16:26:45;8.40;;;7.00;;
3131;SDS011;62090;52.330;9.104;2023-03-08T16:29:17;11.27;;;8.40;;
3131;SDS011;62090;52.330;9.104;2023-03-08T16:31:47;12.33;;;7.73;;
3131;SDS011;62090;52.330;9.104;2023-03-08T16:34:17;12.27;;;7.97;;
3131;SDS011;62090;52.330;9.104;2023-03-08T16:36:47;12.10;;;8.37;;
3131;SDS011;62090;52.330;9.104;2023-03-08T16:39:17;13.33;;;9.87;;
3131;SDS011;62090;52.330;9.104;2023-03-08T16:41:47;12.40;;;9.30;;
3131;SDS011;62090;52.330;9.104;2023-03-08T16:44:20;10.70;;;9.10;;
3131;SDS011;62090;52.330;9.104;2023-03-08T16:47:06;12.13;;;9.23;;
3131;SDS011;62090;52.330;9.104;2023-03-08T16:49:49;11.83;;;9.63;;
3131;SDS011;62090;52.330;9.104;2023-03-08T16:52:19;10.50;;;9.40;;
3131;SDS011;62090;52.330;9.104;2023-03-08T16:54:49;10.10;;;8.50;;
3131;SDS011;62090;52.330;9.104;2023-03-08T16:57:22;13.70;;;9.57;;
3131;SDS011;62090;52.330;9.104;2023-03-08T16:59:58;12.00;;;8.77;;
3131;SDS011;62090;52.330;9.104;2023-03-08T17:02:33;10.90;;;8.67;;
3131;SDS011;62090;52.330;9.104;2023-03-08T17:05:07;12.50;;;9.17;;
3131;SDS011;62090;52.330;9.104;2023-03-08T17:07:38;11.60;;;9.97;;
3131;SDS011;62090;52.330;9.104;2023-03-08T17:10:09;15.20;;;11.20;;
3131;SDS011;62090;52.330;9.104;2023-03-08T17:12:42;16.83;;;12.33;;
3131;SDS011;62090;52.330;9.104;2023-03-08T17:15:16;18.90;;;13.10;;
3131;SDS011;62090;52.330;9.104;2023-03-08T17:17:47;16.00;;;12.73;;
3131;SDS011;62090;52.330;9.104;2023-03-08T17:20:17;14.70;;;12.50;;
3131;SDS011;62090;52.330;9.104;2023-03-08T17:22:47;15.83;;;12.53;;
3131;SDS011;62090;52.330;9.104;2023-03-08T17:25:18;16.80;;;13.37;;
3131;SDS011;62090;52.330;9.104;2023-03-08T17:27:49;24.00;;;15.97;;
3131;SDS011;62090;52.330;9.104;2023-03-08T17:30:23;20.80;;;14.63;;
3131;SDS011;62090;52.330;9.104;2023-03-08T17:32:54;22.10;;;15.33;;
3131;SDS011;62090;52.330;9.104;2023-03-08T17:35:24;19.10;;;13.80;;
3131;SDS011;62090;52.330;9.104;2023-03-08T17:37:55;18.00;;;14.27;;
3131;SDS011;62090;52.330;9.104;2023-03-08T17:40:26;19.70;;;13.70;;
3131;SDS011;62090;52.330;9.104;2023-03-08T17:42:56;19.97;;;13.40;;
3131;SDS011;62090;52.330;9.104;2023-03-08T17:45:31;19.40;;;12.43;;
3131;SDS011;62090;52.330;9.104;2023-03-08T17:48:03;17.47;;;12.50;;
3131;SDS011;62090;52.330;9.104;2023-03-08T17:50:36;15.03;;;12.30;;
3131;SDS011;62090;52.330;9.104;2023-03-08T17:53:06;17.20;;;12.07;;
3131;SDS011;62090;52.330;9.104;2023-03-08T17:55:39;24.67;;;16.20;;
3131;SDS011;62090;52.330;9.104;2023-03-08T17:58:09;21.30;;;13.20;;
3131;SDS011;62090;52.330;9.104;2023-03-08T18:00:42;18.53;;;13.40;;
3131;SDS011;62090;52.330;9.104;2023-03-08T18:03:12;20.13;;;13.90;;
3131;SDS011;62090;52.330;9.104;2023-03-08T18:05:45;18.80;;;14.30;;
3131;SDS011;62090;52.330;9.104;2023-03-08T18:08:17;27.47;;;15.83;;
3131;SDS011;62090;52.330;9.104;2023-03-08T18:10:47;22.23;;;15.37;;
3131;SDS011;62090;52.330;9.104;2023-03-08T18:13:17;21.97;;;14.17;;
3131;SDS011;62090;52.330;9.104;2023-03-08T18:15:50;21.80;;;15.63;;
3131;SDS011;62090;52.330;9.104;2023-03-08T18:18:21;23.80;;;15.60;;
3131;SDS011;62090;52.330;9.104;2023-03-08T18:20:52;27.37;;;16.83;;
3131;SDS011;62090;52.330;9.104;2023-03-08T18:23:38;23.70;;;15.40;;
3131;SDS011;62090;52.330;9.104;2023-03-08T18:26:10;20.10;;;14.70;;
3131;SDS011;62090;52.330;9.104;2023-03-08T18:28:40;23.00;;;16.40;;
3131;SDS011;62090;52.330;9.104;2023-03-08T18:31:14;22.80;;;17.13;;
3131;SDS011;62090;52.330;9.104;2023-03-08T18:33:46;24.90;;;15.87;;
3131;SDS011;62090;52.330;9.104;2023-03-08T18:36:19;19.17;;;14.43;;
3131;SDS011;62090;52.330;9.104;2023-03-08T18:38:49;20.90;;;13.77;;
3131;SDS011;62090;52.330;9.104;2023-03-08T18:41:20;22.00;;;15.97;;
3131;SDS011;62090;52.330;9.104;2023-03-08T18:43:53;20.50;;;14.77;;
3131;SDS011;62090;52.330;9.104;2023-03-08T18:46:30;23.83;;;15.63;;
3131;SDS011;62090;52.330;9.104;2023-03-08T18:49:02;26.23;;;19.30;;
3131;SDS011;62090;52.330;9.104;2023-03-08T18:51:34;44.00;;;27.57;;
3131;SDS011;62090;52.330;9.104;2023-03-08T18:54:06;46.77;;;29.53;;
3131;SDS011;62090;52.330;9.104;2023-03-08T18:56:39;41.73;;;26.43;;
3131;SDS011;62090;52.330;9.104;2023-03-08T18:59:11;48.20;;;27.60;;
3131;SDS011;62090;52.330;9.104;2023-03-08T19:01:47;22.57;;;15.10;;
3131;SDS011;62090;52.330;9.104;2023-03-08T19:04:36;27.83;;;15.87;;
3131;SDS011;62090;52.330;9.104;2023-03-08T19:07:08;26.80;;;16.23;;
3131;SDS011;62090;52.330;9.104;2023-03-08T19:09:39;22.30;;;15.37;;
3131;SDS011;62090;52.330;9.104;2023-03-08T19:12:11;20.63;;;14.63;;
3131;SDS011;62090;52.330;9.104;2023-03-08T19:14:42;21.67;;;15.63;;
3131;SDS011;62090;52.330;9.104;2023-03-08T19:17:18;22.83;;;15.67;;
3131;SDS011;62090;52.330;9.104;2023-03-08T19:19:49;26.27;;;15.90;;
3131;SDS011;62090;52.330;9.104;2023-03-08T19:22:22;24.23;;;15.87;;
3131;SDS011;62090;52.330;9.104;2023-03-08T19:24:52;20.70;;;15.60;;
3131;SDS011;62090;52.330;9.104;2023-03-08T19:27:33;29.40;;;17.00;;
3131;SDS011;62090;52.330;9.104;2023-03-08T19:30:13;23.30;;;16.53;;
3131;SDS011;62090;52.330;9.104;2023-03-08T19:33:10;25.43;;;19.60;;
3131;SDS011;62090;52.330;9.104;2023-03-08T19:36:42;24.90;;;17.33;;
3131;SDS011;62090;52.330;9.104;2023-03-08T19:41:07;25.77;;;18.40;;
3131;SDS011;62090;52.330;9.104;2023-03-08T19:44:31;27.93;;;19.43;;
3131;SDS011;62090;52.330;9.104;2023-03-08T19:47:49;27.00;;;19.30;;
3131;SDS011;62090;52.330;9.104;2023-03-08T19:50:54;24.90;;;18.37;;
3131;SDS011;62090;52.330;9.104;2023-03-08T19:56:47;25.53;;;18.80;;
3131;SDS011;62090;52.330;9.104;2023-03-08T19:59:46;24.97;;;18.87;;
3131;SDS011;62090;52.330;9.104;2023-03-08T20:02:39;28.23;;;20.23;;
3131;SDS011;62090;52.330;9.104;2023-03-08T20:05:11;27.50;;;18.80;;
3131;SDS011;62090;52.330;9.104;2023-03-08T20:07:46;30.10;;;21.20;;
3131;SDS011;62090;52.330;9.104;2023-03-08T20:10:16;34.77;;;23.80;;
3131;SDS011;62090;52.330;9.104;2023-03-08T20:12:48;30.50;;;23.57;;
3131;SDS011;62090;52.330;9.104;2023-03-08T20:15:34;32.23;;;23.23;;
3131;SDS011;62090;52.330;9.104;2023-03-08T20:18:09;31.00;;;22.90;;
3131;SDS011;62090;52.330;9.104;2023-03-08T20:21:02;30.60;;;22.20;;
3131;SDS011;62090;52.330;9.104;2023-03-08T20:28:33;31.53;;;22.37;;
3131;SDS011;62090;52.330;9.104;2023-03-08T20:31:25;30.20;;;22.10;;
3131;SDS011;62090;52.330;9.104;2023-03-08T20:34:22;32.33;;;23.00;;
3131;SDS011;62090;52.330;9.104;2023-03-08T20:37:11;32.10;;;24.27;;
3131;SDS011;62090;52.330;9.104;2023-03-08T20:40:18;36.30;;;28.10;;
3131;SDS011;62090;52.330;9.104;2023-03-08T20:42:59;32.20;;;24.83;;
3131;SDS011;62090;52.330;9.104;2023-03-08T20:45:44;33.17;;;24.67;;
3131;SDS011;62090;52.330;9.104;2023-03-08T20:48:54;35.00;;;26.10;;
3131;SDS011;62090;52.330;9.104;2023-03-08T20:52:07;38.60;;;27.60;;
3131;SDS011;62090;52.330;9.104;2023-03-08T20:55:56;41.57;;;27.37;;
3131;SDS011;62090;52.330;9.104;2023-03-08T20:58:44;41.40;;;29.60;;
3131;SDS011;62090;52.330;9.104;2023-03-08T21:01:15;41.53;;;30.43;;
3131;SDS011;62090;52.330;9.104;2023-03-08T21:03:47;41.73;;;29.37;;
3131;SDS011;62090;52.330;9.104;2023-03-08T21:06:18;37.27;;;28.33;;
3131;SDS011;62090;52.330;9.104;2023-03-08T21:08:49;39.23;;;29.50;;
3131;SDS011;62090;52.330;9.104;2023-03-08T21:11:22;40.10;;;31.17;;
3131;SDS011;62090;52.330;9.104;2023-03-08T21:13:52;36.87;;;28.27;;
3131;SDS011;62090;52.330;9.104;2023-03-08T21:16:23;42.30;;;29.80;;
3131;SDS011;62090;52.330;9.104;2023-03-08T21:18:54;40.40;;;29.70;;
3131;SDS011;62090;52.330;9.104;2023-03-08T21:21:26;43.10;;;30.77;;
3131;SDS011;62090;52.330;9.104;2023-03-08T21:24:00;38.30;;;27.97;;
3131;SDS011;62090;52.330;9.104;2023-03-08T21:26:33;38.80;;;29.67;;
3131;SDS011;62090;52.330;9.104;2023-03-08T21:29:04;38.87;;;29.40;;
3131;SDS011;62090;52.330;9.104;2023-03-08T21:31:38;39.70;;;31.00;;
3131;SDS011;62090;52.330;9.104;2023-03-08T21:34:09;40.43;;;29.70;;
3131;SDS011;62090;52.330;9.104;2023-03-08T21:36:41;56.03;;;37.47;;
3131;SDS011;62090;52.330;9.104;2023-03-08T21:39:11;41.17;;;31.17;;
3131;SDS011;62090;52.330;9.104;2023-03-08T21:41:45;41.77;;;31.17;;
3131;SDS011;62090;52.330;9.104;2023-03-08T21:44:17;37.80;;;29.90;;
3131;SDS011;62090;52.330;9.104;2023-03-08T21:46:48;38.83;;;30.47;;
3131;SDS011;62090;52.330;9.104;2023-03-08T21:49:21;37.30;;;28.93;;
3131;SDS011;62090;52.330;9.104;2023-03-08T21:51:53;39.80;;;29.87;;
3131;SDS011;62090;52.330;9.104;2023-03-08T21:54:24;38.07;;;29.20;;
3131;SDS011;62090;52.330;9.104;2023-03-08T21:56:58;36.40;;;28.90;;
3131;SDS011;62090;52.330;9.104;2023-03-08T21:59:28;36.50;;;27.80;;
3131;SDS011;62090;52.330;9.104;2023-03-08T22:01:58;39.20;;;29.60;;
3131;SDS011;62090;52.330;9.104;2023-03-08T22:04:28;36.80;;;28.53;;
3131;SDS011;62090;52.330;9.104;2023-03-08T22:06:58;38.73;;;29.70;;
3131;SDS011;62090;52.330;9.104;2023-03-08T22:09:28;34.97;;;29.47;;
3131;SDS011;62090;52.330;9.104;2023-03-08T22:12:01;35.87;;;28.90;;
3131;SDS011;62090;52.330;9.104;2023-03-08T22:14:30;35.33;;;28.77;;
3131;SDS011;62090;52.330;9.104;2023-03-08T22:17:00;36.03;;;29.17;;
3131;SDS011;62090;52.330;9.104;2023-03-08T22:19:30;35.37;;;29.20;;
3131;SDS011;62090;52.330;9.104;2023-03-08T22:22:00;38.13;;;28.23;;
3131;SDS011;62090;52.330;9.104;2023-03-08T22:24:30;35.47;;;28.70;;
3131;SDS011;62090;52.330;9.104;2023-03-08T22:27:02;36.73;;;28.50;;
3131;SDS011;62090;52.330;9.104;2023-03-08T22:29:33;33.13;;;26.50;;
3131;SDS011;62090;52.330;9.104;2023-03-08T22:32:02;36.77;;;27.97;;
3131;SDS011;62090;52.330;9.104;2023-03-08T22:34:33;34.70;;;26.57;;
3131;SDS011;62090;52.330;9.104;2023-03-08T22:37:03;33.10;;;26.00;;
3131;SDS011;62090;52.330;9.104;2023-03-08T22:39:33;31.27;;;25.10;;
3131;SDS011;62090;52.330;9.104;2023-03-08T22:42:05;30.20;;;24.60;;
3131;SDS011;62090;52.330;9.104;2023-03-08T22:44:35;35.77;;;27.87;;
3131;SDS011;62090;52.330;9.104;2023-03-08T22:47:05;31.30;;;26.53;;
3131;SDS011;62090;52.330;9.104;2023-03-08T22:49:35;34.00;;;26.90;;
3131;SDS011;62090;52.330;9.104;2023-03-08T22:52:05;37.27;;;26.40;;
3131;SDS011;62090;52.330;9.104;2023-03-08T22:54:35;38.30;;;28.07;;
3131;SDS011;62090;52.330;9.104;2023-03-08T22:57:07;35.13;;;26.73;;
3131;SDS011;62090;52.330;9.104;2023-03-08T22:59:37;34.23;;;25.53;;
3131;SDS011;62090;52.330;9.104;2023-03-08T23:02:08;31.30;;;25.23;;
3131;SDS011;62090;52.330;9.104;2023-03-08T23:04:38;34.23;;;27.20;;
3131;SDS011;62090;52.330;9.104;2023-03-08T23:07:09;38.10;;;27.40;;
3131;SDS011;62090;52.330;9.104;2023-03-08T23:09:38;34.77;;;26.30;;
3131;SDS011;62090;52.330;9.104;2023-03-08T23:12:11;33.77;;;25.60;;
3131;SDS011;62090;52.330;9.104;2023-03-08T23:14:40;33.80;;;26.40;;
3131;SDS011;62090;52.330;9.104;2023-03-08T23:17:10;34.80;;;27.30;;
3131;SDS011;62090;52.330;9.104;2023-03-08T23:19:40;37.30;;;26.73;;
3131;SDS011;62090;52.330;9.104;2023-03-08T23:22:10;34.87;;;26.67;;
3131;SDS011;62090;52.330;9.104;2023-03-08T23:24:40;38.17;;;28.07;;
3131;SDS011;62090;52.330;9.104;2023-03-08T23:27:13;36.07;;;27.77;;
3131;SDS011;62090;52.330;9.104;2023-03-08T23:29:42;33.43;;;26.10;;
3131;SDS011;62090;52.330;9.104;2023-03-08T23:32:12;36.10;;;26.33;;
3131;SDS011;62090;52.330;9.104;2023-03-08T23:34:42;40.40;;;30.30;;
3131;SDS011;62090;52.330;9.104;2023-03-08T23:37:12;33.60;;;26.10;;
3131;SDS011;62090;52.330;9.104;2023-03-08T23:39:41;34.93;;;24.80;;
3131;SDS011;62090;52.330;9.104;2023-03-08T23:42:14;36.45;;;27.90;;
3131;SDS011;62090;52.330;9.104;2023-03-08T23:44:44;33.67;;;26.20;;
3131;SDS011;62090;52.330;9.104;2023-03-08T23:47:13;38.40;;;28.37;;
3131;SDS011;62090;52.330;9.104;2023-03-08T23:49:43;36.17;;;27.20;;
3131;SDS011;62090;52.330;9.104;2023-03-08T23:52:13;39.30;;;29.33;;
3131;SDS011;62090;52.330;9.104;2023-03-08T23:54:42;38.80;;;28.40;;
3131;SDS011;62090;52.330;9.104;2023-03-08T23:57:15;37.20;;;28.20;;
3131;SDS011;62090;52.330;9.104;2023-03-08T23:59:44;36.00;;;26.37;;
